createdAt,value
2017-06-22T00:00:37.459Z,1032.35
2017-06-22T00:01:37.455Z,1032.35
2017-06-22T00:02:37.452Z,1032.35
2017-06-22T00:03:37.449Z,1032.39
2017-06-22T00:04:37.446Z,1032.42
2017-06-22T00:05:37.443Z,1032.45
2017-06-22T00:06:37.440Z,1032.39
2017-06-22T00:07:37.436Z,1032.43
2017-06-22T00:08:37.433Z,1032.4
2017-06-22T00:09:37.430Z,1032.42
2017-06-22T00:10:37.428Z,1032.45
2017-06-22T00:11:37.423Z,1032.48
2017-06-22T00:12:37.420Z,1032.48
2017-06-22T00:13:37.417Z,1032.53
2017-06-22T00:14:37.414Z,1032.53
2017-06-22T00:15:37.410Z,1032.56
2017-06-22T00:16:37.407Z,1032.58
2017-06-22T00:17:37.404Z,1032.57
2017-06-22T00:18:37.400Z,1032.55
2017-06-22T00:19:37.397Z,1032.53
2017-06-22T00:20:37.394Z,1032.53
2017-06-22T00:21:37.391Z,1032.55
2017-06-22T00:22:37.386Z,1032.57
2017-06-22T00:23:37.383Z,1032.62
2017-06-22T00:24:37.381Z,1032.67
2017-06-22T00:25:37.377Z,1032.65
2017-06-22T00:26:37.373Z,1032.67
2017-06-22T00:27:37.370Z,1032.65
2017-06-22T00:28:37.366Z,1032.69
2017-06-22T00:29:37.362Z,1032.72
2017-06-22T00:30:37.359Z,1032.71
2017-06-22T00:31:37.355Z,1032.73
2017-06-22T00:32:37.352Z,1032.74
2017-06-22T00:33:37.348Z,1032.73
2017-06-22T00:34:37.345Z,1032.71
2017-06-22T00:35:37.341Z,1032.71
2017-06-22T00:36:37.339Z,1032.69
2017-06-22T00:37:37.335Z,1032.68
2017-06-22T00:38:37.331Z,1032.65
2017-06-22T00:39:37.328Z,1032.66
2017-06-22T00:40:37.324Z,1032.62
2017-06-22T00:41:37.320Z,1032.56
2017-06-22T00:42:37.317Z,1032.5
2017-06-22T00:43:37.313Z,1032.45
2017-06-22T00:44:37.309Z,1032.45
2017-06-22T00:45:37.306Z,1032.46
2017-06-22T00:46:37.306Z,1032.44
2017-06-22T00:47:37.297Z,1032.44
2017-06-22T00:48:37.294Z,1032.42
2017-06-22T00:49:37.291Z,1032.43
2017-06-22T00:50:37.288Z,1032.43
2017-06-22T00:51:37.283Z,1032.47
2017-06-22T00:52:37.279Z,1032.48
2017-06-22T00:53:37.276Z,1032.53
2017-06-22T00:54:37.271Z,1032.5
2017-06-22T00:55:37.268Z,1032.47
2017-06-22T00:56:37.264Z,1032.51
2017-06-22T00:57:37.261Z,1032.51
2017-06-22T00:58:37.257Z,1032.55
2017-06-22T00:59:37.253Z,1032.64
2017-06-22T01:00:37.250Z,1032.69
2017-06-22T01:01:37.246Z,1032.72
2017-06-22T01:02:37.242Z,1032.68
2017-06-22T01:03:37.238Z,1032.64
2017-06-22T01:04:37.235Z,1032.63
2017-06-22T01:05:37.232Z,1032.66
2017-06-22T01:06:37.227Z,1032.69
2017-06-22T01:07:37.222Z,1032.62
2017-06-22T01:08:37.219Z,1032.58
2017-06-22T01:09:37.215Z,1032.56
2017-06-22T01:10:37.211Z,1032.51
2017-06-22T01:11:37.207Z,1032.57
2017-06-22T01:12:37.204Z,1032.55
2017-06-22T01:13:37.199Z,1032.53
2017-06-22T01:14:37.195Z,1032.56
2017-06-22T01:15:37.191Z,1032.54
2017-06-22T01:16:37.189Z,1032.58
2017-06-22T01:17:37.184Z,1032.59
2017-06-22T01:18:37.180Z,1032.65
2017-06-22T01:19:37.177Z,1032.64
2017-06-22T01:20:37.172Z,1032.67
2017-06-22T01:21:37.171Z,1032.72
2017-06-22T01:22:37.165Z,1032.75
2017-06-22T01:23:37.161Z,1032.77
2017-06-22T01:24:37.155Z,1032.8
2017-06-22T01:25:37.152Z,1032.78
2017-06-22T01:26:37.148Z,1032.77
2017-06-22T01:27:37.145Z,1032.75
2017-06-22T01:28:37.140Z,1032.71
2017-06-22T01:29:37.136Z,1032.66
2017-06-22T01:30:37.133Z,1032.66
2017-06-22T01:31:37.128Z,1032.65
2017-06-22T01:32:37.124Z,1032.65
2017-06-22T01:33:37.120Z,1032.65
2017-06-22T01:34:37.117Z,1032.63
2017-06-22T01:35:37.111Z,1032.65
2017-06-22T01:36:37.107Z,1032.64
2017-06-22T01:37:37.104Z,1032.62
2017-06-22T01:38:37.100Z,1032.57
2017-06-22T01:39:37.095Z,1032.55
2017-06-22T01:40:37.091Z,1032.57
2017-06-22T01:41:37.087Z,1032.58
2017-06-22T01:42:37.082Z,1032.55
2017-06-22T01:43:37.077Z,1032.54
2017-06-22T01:44:37.074Z,1032.58
2017-06-22T01:45:37.070Z,1032.52
2017-06-22T01:46:37.066Z,1032.52
2017-06-22T01:47:37.061Z,1032.52
2017-06-22T01:48:37.058Z,1032.53
2017-06-22T01:49:37.054Z,1032.53
2017-06-22T01:50:37.048Z,1032.54
2017-06-22T01:51:37.044Z,1032.52
2017-06-22T01:52:37.039Z,1032.55
2017-06-22T01:53:37.035Z,1032.56
2017-06-22T01:54:37.032Z,1032.61
2017-06-22T01:55:37.027Z,1032.61
2017-06-22T01:56:37.023Z,1032.67
2017-06-22T01:57:37.018Z,1032.66
2017-06-22T01:58:37.014Z,1032.69
2017-06-22T01:59:37.010Z,1032.74
2017-06-22T02:00:37.005Z,1032.75
2017-06-22T02:01:37.000Z,1032.77
2017-06-22T02:02:36.996Z,1032.75
2017-06-22T02:03:36.992Z,1032.77
2017-06-22T02:04:36.987Z,1032.77
2017-06-22T02:05:36.983Z,1032.75
2017-06-22T02:06:36.979Z,1032.78
2017-06-22T02:07:36.974Z,1032.71
2017-06-22T02:08:36.970Z,1032.72
2017-06-22T02:09:36.965Z,1032.72
2017-06-22T02:10:36.961Z,1032.7
2017-06-22T02:11:36.957Z,1032.7
2017-06-22T02:12:36.951Z,1032.68
2017-06-22T02:13:36.948Z,1032.67
2017-06-22T02:14:36.944Z,1032.65
2017-06-22T02:15:36.939Z,1032.64
2017-06-22T02:16:36.935Z,1032.58
2017-06-22T02:17:36.932Z,1032.58
2017-06-22T02:18:36.926Z,1032.56
2017-06-22T02:19:36.920Z,1032.56
2017-06-22T02:20:36.917Z,1032.55
2017-06-22T02:21:36.913Z,1032.57
2017-06-22T02:22:36.909Z,1032.6
2017-06-22T02:23:36.902Z,1032.61
2017-06-22T02:24:36.898Z,1032.62
2017-06-22T02:25:36.895Z,1032.64
2017-06-22T02:26:36.889Z,1032.63
2017-06-22T02:27:36.884Z,1032.6
2017-06-22T02:28:36.879Z,1032.6
2017-06-22T02:29:36.876Z,1032.57
2017-06-22T02:30:36.871Z,1032.6
2017-06-22T02:31:36.865Z,1032.62
2017-06-22T02:32:36.864Z,1032.6
2017-06-22T02:33:36.856Z,1032.61
2017-06-22T02:34:36.852Z,1032.61
2017-06-22T02:35:36.847Z,1032.62
2017-06-22T02:36:36.842Z,1032.6
2017-06-22T02:37:36.837Z,1032.6
2017-06-22T02:38:36.833Z,1032.59
2017-06-22T02:39:36.828Z,1032.6
2017-06-22T02:40:36.824Z,1032.56
2017-06-22T02:41:36.819Z,1032.55
2017-06-22T02:42:36.815Z,1032.55
2017-06-22T02:43:36.811Z,1032.53
2017-06-22T02:44:36.804Z,1032.53
2017-06-22T02:45:36.800Z,1032.52
2017-06-22T02:46:36.796Z,1032.52
2017-06-22T02:47:36.795Z,1032.5
2017-06-22T02:48:36.786Z,1032.48
2017-06-22T02:49:36.782Z,1032.48
2017-06-22T02:50:36.778Z,1032.51
2017-06-22T02:51:36.773Z,1032.48
2017-06-22T02:52:36.768Z,1032.51
2017-06-22T02:53:36.764Z,1032.49
2017-06-22T02:54:36.759Z,1032.5
2017-06-22T02:55:36.754Z,1032.51
2017-06-22T02:56:36.750Z,1032.49
2017-06-22T02:57:36.745Z,1032.51
2017-06-22T02:58:36.741Z,1032.55
2017-06-22T02:59:36.735Z,1032.53
2017-06-22T03:00:36.731Z,1032.57
2017-06-22T03:01:36.727Z,1032.56
2017-06-22T03:02:36.722Z,1032.56
2017-06-22T03:03:36.717Z,1032.53
2017-06-22T03:04:36.713Z,1032.51
2017-06-22T03:05:36.709Z,1032.52
2017-06-22T03:06:36.703Z,1032.45
2017-06-22T03:07:36.699Z,1032.44
2017-06-22T03:08:36.694Z,1032.48
2017-06-22T03:09:36.689Z,1032.44
2017-06-22T03:10:36.684Z,1032.44
2017-06-22T03:11:36.680Z,1032.4
2017-06-22T03:12:36.675Z,1032.42
2017-06-22T03:13:36.671Z,1032.38
2017-06-22T03:14:36.665Z,1032.37
2017-06-22T03:15:36.661Z,1032.38
2017-06-22T03:16:36.656Z,1032.37
2017-06-22T03:17:36.651Z,1032.34
2017-06-22T03:18:36.647Z,1032.29
2017-06-22T03:19:36.643Z,1032.26
2017-06-22T03:20:36.638Z,1032.31
2017-06-22T03:21:36.633Z,1032.27
2017-06-22T03:22:36.628Z,1032.3
2017-06-22T03:23:36.624Z,1032.31
2017-06-22T03:24:36.620Z,1032.26
2017-06-22T03:25:36.615Z,1032.22
2017-06-22T03:26:36.610Z,1032.23
2017-06-22T03:27:36.606Z,1032.25
2017-06-22T03:28:36.602Z,1032.21
2017-06-22T03:29:36.596Z,1032.18
2017-06-22T03:30:36.591Z,1032.16
2017-06-22T03:31:36.588Z,1032.06
2017-06-22T03:32:36.582Z,1032.03
2017-06-22T03:33:36.577Z,1031.94
2017-06-22T03:34:36.575Z,1031.85
2017-06-22T03:35:36.573Z,1031.77
2017-06-22T03:36:36.564Z,1031.67
2017-06-22T03:37:36.561Z,1031.64
2017-06-22T03:38:36.556Z,1031.57
2017-06-22T03:39:36.553Z,1031.5
2017-06-22T03:40:36.547Z,1031.38
2017-06-22T03:41:36.544Z,1031.2
2017-06-22T03:42:36.540Z,1031.09
2017-06-22T03:43:36.534Z,1030.95
2017-06-22T03:44:36.532Z,1030.84
2017-06-22T03:45:36.527Z,1030.65
2017-06-22T03:46:36.524Z,1030.31
2017-06-22T03:47:36.520Z,1030.05
2017-06-22T03:48:36.517Z,1029.82
2017-06-22T03:49:36.514Z,1029.63
2017-06-22T03:50:36.510Z,1029.43
2017-06-22T03:51:36.506Z,1029.28
2017-06-22T03:52:36.504Z,1029.08
2017-06-22T03:53:36.501Z,1028.95
2017-06-22T03:54:36.498Z,1028.74
2017-06-22T03:55:36.495Z,1028.58
2017-06-22T03:56:36.493Z,1028.42
2017-06-22T03:57:36.490Z,1028.2
2017-06-22T03:58:36.489Z,1028.05
2017-06-22T03:59:36.486Z,1027.89
2017-06-22T04:00:36.487Z,1027.69
2017-06-22T04:01:36.486Z,1027.63
2017-06-22T04:02:36.484Z,1027.58
2017-06-22T04:03:36.483Z,1027.48
2017-06-22T04:04:36.482Z,1027.27
2017-06-22T04:05:36.482Z,1027.13
2017-06-22T04:06:36.483Z,1026.98
2017-06-22T04:07:36.483Z,1026.85
2017-06-22T04:08:36.483Z,1026.75
2017-06-22T04:09:36.484Z,1026.6
2017-06-22T04:10:36.486Z,1026.51
2017-06-22T04:11:36.487Z,1026.38
2017-06-22T04:12:36.488Z,1026.27
2017-06-22T04:13:36.490Z,1026.2
2017-06-22T04:14:36.493Z,1026.1
2017-06-22T04:15:36.496Z,1026.03
2017-06-22T04:16:36.499Z,1025.98
2017-06-22T04:17:36.501Z,1025.91
2017-06-22T04:18:36.509Z,1025.85
2017-06-22T04:19:36.509Z,1025.73
2017-06-22T04:20:36.512Z,1025.63
2017-06-22T04:21:36.518Z,1025.54
2017-06-22T04:22:36.523Z,1025.51
2017-06-22T04:23:36.526Z,1025.47
2017-06-22T04:24:36.532Z,1025.35
2017-06-22T04:25:36.538Z,1025.33
2017-06-22T04:26:36.543Z,1025.22
2017-06-22T04:27:36.549Z,1025.14
2017-06-22T04:28:36.554Z,1025.03
2017-06-22T04:29:36.561Z,1024.99
2017-06-22T04:30:36.566Z,1024.86
2017-06-22T04:31:36.573Z,1024.84
2017-06-22T04:32:36.580Z,1024.72
2017-06-22T04:33:36.586Z,1024.63
2017-06-22T04:34:36.593Z,1024.51
2017-06-22T04:35:36.600Z,1024.48
2017-06-22T04:36:36.609Z,1024.4
2017-06-22T04:37:36.615Z,1024.33
2017-06-22T04:38:36.622Z,1024.26
2017-06-22T04:39:36.630Z,1024.21
2017-06-22T04:40:36.638Z,1024.19
2017-06-22T04:41:36.647Z,1024.17
2017-06-22T04:42:36.655Z,1024.12
2017-06-22T04:43:36.663Z,1024.06
2017-06-22T04:44:36.672Z,1024.01
2017-06-22T04:45:36.680Z,1023.99
2017-06-22T04:46:36.689Z,1023.93
2017-06-22T04:47:36.698Z,1023.94
2017-06-22T04:48:36.706Z,1023.79
2017-06-22T04:49:36.715Z,1023.75
2017-06-22T04:50:36.725Z,1023.68
2017-06-22T04:51:36.734Z,1023.59
2017-06-22T04:52:36.743Z,1023.6
2017-06-22T04:53:36.752Z,1023.54
2017-06-22T04:54:36.762Z,1023.54
2017-06-22T04:55:36.772Z,1023.51
2017-06-22T04:56:36.781Z,1023.44
2017-06-22T04:57:36.792Z,1023.43
2017-06-22T04:58:36.802Z,1023.42
2017-06-22T04:59:36.812Z,1023.45
2017-06-22T05:00:36.822Z,1023.37
2017-06-22T05:01:36.833Z,1023.34
2017-06-22T05:02:36.844Z,1023.25
2017-06-22T05:03:36.854Z,1023.25
2017-06-22T05:04:36.865Z,1023.29
2017-06-22T05:05:36.876Z,1023.25
2017-06-22T05:06:36.886Z,1023.15
2017-06-22T05:07:36.897Z,1023.18
2017-06-22T05:08:36.908Z,1023.17
2017-06-22T05:09:36.919Z,1023.18
2017-06-22T05:10:36.930Z,1023.14
2017-06-22T05:11:36.941Z,1023.09
2017-06-22T05:12:36.973Z,1023.06
2017-06-22T05:13:36.964Z,1023.04
2017-06-22T05:14:36.974Z,1022.97
2017-06-22T05:15:36.986Z,1022.99
2017-06-22T05:16:36.998Z,1023.01
2017-06-22T05:17:37.010Z,1022.96
2017-06-22T05:18:37.021Z,1022.95
2017-06-22T05:19:37.033Z,1022.95
2017-06-22T05:20:37.045Z,1022.91
2017-06-22T05:21:37.058Z,1022.79
2017-06-22T05:22:37.069Z,1022.78
2017-06-22T05:23:37.082Z,1022.87
2017-06-22T05:24:37.094Z,1022.94
2017-06-22T05:25:37.105Z,1022.97
2017-06-22T05:26:37.117Z,1022.93
2017-06-22T05:27:37.130Z,1022.83
2017-06-22T05:29:37.154Z,1022.82
2017-06-22T05:30:37.167Z,1022.81
2017-06-22T05:31:37.182Z,1022.84
2017-06-22T05:32:37.191Z,1022.85
2017-06-22T05:33:37.205Z,1022.79
2017-06-22T05:34:37.217Z,1022.72
2017-06-22T05:35:37.229Z,1022.66
2017-06-22T05:36:37.242Z,1022.62
2017-06-22T05:37:37.255Z,1022.6
2017-06-22T05:38:37.267Z,1022.5
2017-06-22T05:39:37.282Z,1022.43
2017-06-22T05:40:37.293Z,1022.4
2017-06-22T05:41:37.306Z,1022.34
2017-06-22T05:42:37.320Z,1022.32
2017-06-22T05:43:37.332Z,1022.24
2017-06-22T05:44:37.347Z,1022.35
2017-06-22T05:45:37.360Z,1022.4
2017-06-22T05:46:37.375Z,1022.43
2017-06-22T05:47:37.387Z,1022.3
2017-06-22T05:48:37.402Z,1022.26
2017-06-22T05:49:37.415Z,1022.27
2017-06-22T05:50:37.429Z,1022.32
2017-06-22T05:51:37.441Z,1022.35
2017-06-22T05:52:37.456Z,1022.32
2017-06-22T05:53:37.473Z,1022.38
2017-06-22T05:54:37.482Z,1022.29
2017-06-22T05:55:37.498Z,1022.28
2017-06-22T05:56:37.512Z,1022.25
2017-06-22T05:57:37.525Z,1022.19
2017-06-22T05:58:37.539Z,1022.09
2017-06-22T05:59:37.555Z,1022
2017-06-22T06:00:37.569Z,1021.94
2017-06-22T06:01:37.583Z,1021.8
2017-06-22T06:02:37.596Z,1021.77
2017-06-22T06:03:37.611Z,1021.73
2017-06-22T06:04:37.626Z,1021.69
2017-06-22T06:05:37.639Z,1021.66
2017-06-22T06:06:37.655Z,1021.6
2017-06-22T06:07:37.669Z,1021.56
2017-06-22T06:08:37.684Z,1021.56
2017-06-22T06:09:37.699Z,1021.5
2017-06-22T06:10:37.713Z,1021.39
2017-06-22T06:11:37.729Z,1021.29
2017-06-22T06:12:37.743Z,1021.29
2017-06-22T06:13:37.758Z,1021.24
2017-06-22T06:14:37.774Z,1021.17
2017-06-22T06:15:37.788Z,1021.08
2017-06-22T06:16:37.802Z,1021.01
2017-06-22T06:17:37.818Z,1020.89
2017-06-22T06:18:37.833Z,1020.8
2017-06-22T06:19:37.849Z,1020.74
2017-06-22T06:20:37.863Z,1020.71
2017-06-22T06:21:37.880Z,1020.69
2017-06-22T06:22:37.895Z,1020.72
2017-06-22T06:23:37.910Z,1020.69
2017-06-22T06:24:37.925Z,1020.57
2017-06-22T06:25:37.941Z,1020.52
2017-06-22T06:26:37.957Z,1020.41
2017-06-22T06:27:37.971Z,1020.61
2017-06-22T06:28:37.987Z,1020.57
2017-06-22T06:29:38.003Z,1020.47
2017-06-22T06:30:38.021Z,1020.7
2017-06-22T06:31:38.035Z,1020.61
2017-06-22T06:32:38.050Z,1020.54
2017-06-22T06:33:38.067Z,1020.47
2017-06-22T06:34:38.083Z,1020.36
2017-06-22T06:35:38.100Z,1020.3
2017-06-22T06:36:38.114Z,1020.08
2017-06-22T06:37:38.431Z,1020.18
2017-06-22T06:38:38.146Z,1020.08
2017-06-22T06:39:38.161Z,1019.98
2017-06-22T06:40:38.178Z,1020.16
2017-06-22T06:41:38.194Z,1020.04
2017-06-22T06:42:38.210Z,1020.39
2017-06-22T06:43:38.226Z,1020.3
2017-06-22T06:44:38.243Z,1020.2
2017-06-22T06:45:38.259Z,1020.1
2017-06-22T06:46:38.276Z,1020.02
2017-06-22T06:47:38.291Z,1019.97
2017-06-22T06:48:38.308Z,1019.98
2017-06-22T06:49:38.324Z,1020.02
2017-06-22T06:50:38.340Z,1019.99
2017-06-22T06:51:38.358Z,1020.01
2017-06-22T06:52:38.374Z,1020.02
2017-06-22T06:53:38.390Z,1020.1
2017-06-22T06:54:38.406Z,1020.03
2017-06-22T06:55:38.424Z,1020.06
2017-06-22T06:56:38.440Z,1020.1
2017-06-22T06:57:38.458Z,1020.01
2017-06-22T06:58:38.474Z,1020.01
2017-06-22T06:59:38.491Z,1019.96
2017-06-22T07:00:38.507Z,1019.95
2017-06-22T07:01:38.524Z,1019.87
2017-06-22T07:02:38.542Z,1019.7
2017-06-22T07:03:38.559Z,1019.6
2017-06-22T07:04:38.575Z,1020.24
2017-06-22T07:05:38.594Z,1020.38
2017-06-22T07:06:38.609Z,1020.49
2017-06-22T07:07:38.625Z,1020.7
2017-06-22T07:08:38.642Z,1021.19
2017-06-22T07:09:38.659Z,1021.63
2017-06-22T07:10:38.675Z,1021.91
2017-06-22T07:11:38.694Z,1022.15
2017-06-22T07:12:38.707Z,1022.39
2017-06-22T07:13:38.723Z,1022.64
2017-06-22T07:14:38.739Z,1022.77
2017-06-22T07:15:38.753Z,1022.56
2017-06-22T07:16:38.769Z,1022.26
2017-06-22T07:17:38.785Z,1021.59
2017-06-22T07:18:38.799Z,1021.46
2017-06-22T07:19:38.813Z,1021.45
2017-06-22T07:20:38.830Z,1021.31
2017-06-22T07:21:38.844Z,1021.34
2017-06-22T07:22:38.859Z,1021.55
2017-06-22T07:23:38.874Z,1021.75
2017-06-22T07:24:38.889Z,1021.7
2017-06-22T07:25:38.907Z,1021.92
2017-06-22T07:26:38.918Z,1022.03
2017-06-22T07:27:38.933Z,1022.16
2017-06-22T07:28:38.949Z,1022.33
2017-06-22T07:29:38.963Z,1022.24
2017-06-22T07:30:38.977Z,1022.15
2017-06-22T07:31:38.992Z,1022.28
2017-06-22T07:32:39.007Z,1022.06
2017-06-22T07:33:39.019Z,1022.19
2017-06-22T07:34:39.034Z,1022.28
2017-06-22T07:35:39.048Z,1022.57
2017-06-22T07:36:39.063Z,1022.4
2017-06-22T07:37:39.075Z,1022.63
2017-06-22T07:38:39.089Z,1022.89
2017-06-22T07:39:39.102Z,1022.75
2017-06-22T07:40:39.116Z,1022.73
2017-06-22T07:41:39.129Z,1022.69
2017-06-22T07:42:39.142Z,1022.63
2017-06-22T07:43:39.156Z,1022.47
2017-06-22T07:44:39.169Z,1022.3
2017-06-22T07:45:39.182Z,1021.92
2017-06-22T07:46:39.195Z,1021.57
2017-06-22T07:47:39.209Z,1022.05
2017-06-22T07:48:39.223Z,1021.88
2017-06-22T07:49:39.234Z,1022.04
2017-06-22T07:50:39.248Z,1021.81
2017-06-22T07:51:39.260Z,1021.69
2017-06-22T07:52:39.274Z,1020.97
2017-06-22T07:53:39.288Z,1021.23
2017-06-22T07:54:39.301Z,1021.6
2017-06-22T07:55:39.313Z,1021.76
2017-06-22T07:56:39.326Z,1022.03
2017-06-22T07:57:39.340Z,1022.17
2017-06-22T07:58:39.353Z,1022.41
2017-06-22T07:59:39.365Z,1022.71
2017-06-22T08:00:39.379Z,1023.01
2017-06-22T08:01:39.392Z,1022.67
2017-06-22T08:02:39.403Z,1022.55
2017-06-22T08:03:39.416Z,1022.28
2017-06-22T08:04:39.429Z,1022.33
2017-06-22T08:05:39.442Z,1022.48
2017-06-22T08:06:39.454Z,1022.23
2017-06-22T08:07:39.466Z,1021.91
2017-06-22T08:08:39.479Z,1020.99
2017-06-22T08:09:39.491Z,1021.52
2017-06-22T08:10:39.503Z,1021.56
2017-06-22T08:11:39.517Z,1021.94
2017-06-22T08:12:39.529Z,1022.19
2017-06-22T08:13:39.541Z,1022.27
2017-06-22T08:14:39.553Z,1022.49
2017-06-22T08:15:39.574Z,1022.7
2017-06-22T08:16:39.578Z,1022.91
2017-06-22T08:17:39.590Z,1023.06
2017-06-22T08:18:39.602Z,1023.25
2017-06-22T08:19:39.614Z,1023.4
2017-06-22T08:20:39.628Z,1023.6
2017-06-22T08:21:39.638Z,1023.79
2017-06-22T08:22:39.649Z,1024
2017-06-22T08:23:39.661Z,1024.29
2017-06-22T08:24:39.670Z,1024.48
2017-06-22T08:25:39.682Z,1024.62
2017-06-22T08:26:39.693Z,1024.55
2017-06-22T08:27:39.705Z,1024.54
2017-06-22T08:28:39.720Z,1024.55
2017-06-22T08:29:39.725Z,1024.62
2017-06-22T08:30:39.735Z,1024.67
2017-06-22T08:31:39.746Z,1024.72
2017-06-22T08:32:39.756Z,1024.78
2017-06-22T08:33:39.766Z,1024.9
2017-06-22T08:34:39.776Z,1024.95
2017-06-22T08:35:39.786Z,1025.01
2017-06-22T08:36:39.795Z,1024.76
2017-06-22T08:37:39.806Z,1023.66
2017-06-22T08:38:39.815Z,1022.97
2017-06-22T08:39:39.824Z,1022.44
2017-06-22T08:40:39.834Z,1022.02
2017-06-22T08:41:39.844Z,1021.56
2017-06-22T08:42:39.854Z,1021.29
2017-06-22T08:43:39.865Z,1020.93
2017-06-22T08:44:39.874Z,1020.87
2017-06-22T08:47:39.906Z,1020.51
2017-06-22T08:50:39.938Z,1020.04
2017-06-22T08:51:39.949Z,1019.95
2017-06-22T08:52:39.961Z,1019.88
2017-06-22T08:53:39.971Z,1019.75
2017-06-22T08:54:39.982Z,1019.68
2017-06-22T08:55:39.994Z,1019.71
2017-06-22T08:56:40.007Z,1019.86
2017-06-22T08:57:40.318Z,1020.27
2017-06-22T08:58:40.030Z,1020.82
2017-06-22T08:59:40.042Z,1021.37
2017-06-22T09:00:40.054Z,1021.88
2017-06-22T09:01:40.066Z,1022.37
2017-06-22T09:02:40.078Z,1022.71
2017-06-22T09:03:40.090Z,1022.97
2017-06-22T09:04:40.100Z,1023.24
2017-06-22T09:05:40.112Z,1023.48
2017-06-22T09:06:40.124Z,1023.68
2017-06-22T09:07:40.135Z,1023.83
2017-06-22T09:08:40.145Z,1023.93
2017-06-22T09:09:40.157Z,1024.06
2017-06-22T09:10:40.166Z,1024.3
2017-06-22T09:11:40.177Z,1024.5
2017-06-22T09:13:40.197Z,1024.82
2017-06-22T09:14:40.207Z,1024.98
2017-06-22T09:15:40.216Z,1025.04
2017-06-22T09:16:40.226Z,1025.06
2017-06-22T09:17:40.235Z,1025.1
2017-06-22T09:18:40.245Z,1025.05
2017-06-22T09:19:40.254Z,1025.15
2017-06-22T09:20:40.264Z,1025.2
2017-06-22T09:21:40.272Z,1025.18
2017-06-22T09:22:40.280Z,1025.23
2017-06-22T09:23:40.290Z,1025.27
2017-06-22T09:24:40.297Z,1025.31
2017-06-22T09:25:40.306Z,1025.34
2017-06-22T09:26:40.312Z,1025.29
2017-06-22T09:27:40.321Z,1025.32
2017-06-22T09:28:40.330Z,1025.33
2017-06-22T09:29:40.339Z,1025.28
2017-06-22T09:30:40.345Z,1025.24
2017-06-22T09:31:40.353Z,1025.15
2017-06-22T09:32:40.361Z,1025.11
2017-06-22T09:33:40.369Z,1025.14
2017-06-22T09:34:40.377Z,1025.11
2017-06-22T09:35:40.385Z,1025.08
2017-06-22T09:36:40.392Z,1025.02
2017-06-22T09:37:40.399Z,1024.94
2017-06-22T09:38:40.407Z,1024.88
2017-06-22T09:39:40.415Z,1024.83
2017-06-22T09:40:40.422Z,1024.78
2017-06-22T09:41:40.429Z,1024.75
2017-06-22T09:42:40.436Z,1024.74
2017-06-22T09:43:40.445Z,1024.71
2017-06-22T09:44:40.457Z,1024.65
2017-06-22T09:45:40.461Z,1024.63
2017-06-22T09:46:40.468Z,1024.6
2017-06-22T09:47:40.477Z,1024.48
2017-06-22T09:48:40.484Z,1024.45
2017-06-22T09:49:40.490Z,1024.4
2017-06-22T09:50:40.498Z,1024.29
2017-06-22T09:51:40.506Z,1024.28
2017-06-22T09:52:40.513Z,1024.3
2017-06-22T09:53:40.522Z,1024.19
2017-06-22T09:54:40.529Z,1024.18
2017-06-22T09:55:40.537Z,1024.2
2017-06-22T09:56:40.543Z,1024.23
2017-06-22T09:57:40.552Z,1024.21
2017-06-22T09:58:40.560Z,1024.24
2017-06-22T09:59:40.567Z,1024.21
2017-06-22T10:00:40.574Z,1024.25
2017-06-22T10:01:40.582Z,1024.17
2017-06-22T10:02:40.590Z,1024.2
2017-06-22T10:03:40.596Z,1024.2
2017-06-22T10:04:40.605Z,1024.23
2017-06-22T10:05:40.612Z,1024.28
2017-06-22T10:06:40.620Z,1024.29
2017-06-22T10:07:40.628Z,1024.34
2017-06-22T10:08:40.636Z,1024.34
2017-06-22T10:09:40.645Z,1024.29
2017-06-22T10:10:40.650Z,1024.19
2017-06-22T10:11:40.658Z,1024.17
2017-06-22T10:12:40.669Z,1024.14
2017-06-22T10:13:40.673Z,1024.1
2017-06-22T10:14:40.681Z,1024.01
2017-06-22T10:15:40.688Z,1023.95
2017-06-22T10:16:40.696Z,1023.9
2017-06-22T10:17:40.702Z,1023.94
2017-06-22T10:18:40.710Z,1023.97
2017-06-22T10:19:40.718Z,1023.93
2017-06-22T10:20:40.725Z,1023.88
2017-06-22T10:21:40.732Z,1023.88
2017-06-22T10:22:40.740Z,1023.92
2017-06-22T10:23:40.747Z,1023.93
2017-06-22T10:24:40.755Z,1023.95
2017-06-22T10:25:40.761Z,1024.01
2017-06-22T10:26:40.769Z,1024.07
2017-06-22T10:27:40.777Z,1024.2
2017-06-22T10:28:40.783Z,1024.22
2017-06-22T10:29:40.791Z,1024.2
2017-06-22T10:30:40.799Z,1024.1
2017-06-22T10:31:40.806Z,1024.1
2017-06-22T10:32:40.812Z,1024
2017-06-22T10:33:40.820Z,1024
2017-06-22T10:34:40.828Z,1023.99
2017-06-22T10:35:40.834Z,1023.97
2017-06-22T10:36:40.842Z,1023.99
2017-06-22T10:37:40.849Z,1024.02
2017-06-22T10:38:40.857Z,1024.02
2017-06-22T10:39:40.862Z,1024.01
2017-06-22T10:40:40.871Z,1024.03
2017-06-22T10:41:40.878Z,1023.99
2017-06-22T10:42:40.886Z,1023.94
2017-06-22T10:43:40.893Z,1023.83
2017-06-22T10:44:40.902Z,1023.75
2017-06-22T10:45:40.908Z,1023.66
2017-06-22T10:46:40.917Z,1023.6
2017-06-22T10:47:40.922Z,1023.64
2017-06-22T10:48:40.930Z,1023.56
2017-06-22T10:49:40.938Z,1023.48
2017-06-22T10:50:40.944Z,1023.37
2017-06-22T10:51:40.952Z,1023.31
2017-06-22T10:52:40.960Z,1023.19
2017-06-22T10:53:40.968Z,1023.04
2017-06-22T10:54:40.976Z,1022.91
2017-06-22T10:55:40.984Z,1022.81
2017-06-22T10:56:40.991Z,1022.76
2017-06-22T10:57:41.000Z,1022.76
2017-06-22T10:58:41.007Z,1022.67
2017-06-22T10:59:41.015Z,1022.65
2017-06-22T11:00:41.024Z,1022.7
2017-06-22T11:01:41.032Z,1022.64
2017-06-22T11:02:41.039Z,1022.65
2017-06-22T11:03:41.047Z,1022.57
2017-06-22T11:04:41.057Z,1022.55
2017-06-22T11:05:41.064Z,1022.55
2017-06-22T11:06:41.073Z,1022.52
2017-06-22T11:07:41.082Z,1022.42
2017-06-22T11:08:41.091Z,1022.36
2017-06-22T11:09:41.098Z,1022.36
2017-06-22T11:10:41.108Z,1022.4
2017-06-22T11:11:41.117Z,1022.42
2017-06-22T11:12:41.125Z,1022.37
2017-06-22T11:13:41.134Z,1022.38
2017-06-22T11:14:41.142Z,1022.29
2017-06-22T11:15:41.151Z,1022.25
2017-06-22T11:16:41.160Z,1022.15
2017-06-22T11:17:41.170Z,1022.15
2017-06-22T11:18:41.179Z,1022.14
2017-06-22T11:19:41.189Z,1022.12
2017-06-22T11:20:41.197Z,1022.07
2017-06-22T11:21:41.206Z,1022.05
2017-06-22T11:22:41.215Z,1022.1
2017-06-22T11:23:41.224Z,1022.12
2017-06-22T11:24:41.238Z,1022.13
2017-06-22T11:25:41.247Z,1022.12
2017-06-22T11:26:41.254Z,1022.16
2017-06-22T11:27:41.262Z,1022.14
2017-06-22T11:28:41.272Z,1022.19
2017-06-22T11:29:41.282Z,1022.22
2017-06-22T11:30:41.292Z,1022.21
2017-06-22T11:31:41.300Z,1022.23
2017-06-22T11:32:41.311Z,1022.28
2017-06-22T11:33:41.320Z,1022.33
2017-06-22T11:34:41.329Z,1022.37
2017-06-22T11:35:41.338Z,1022.35
2017-06-22T11:36:41.348Z,1022.44
2017-06-22T11:37:41.358Z,1022.47
2017-06-22T11:38:41.366Z,1022.6
2017-06-22T11:39:41.376Z,1022.63
2017-06-22T11:40:41.386Z,1022.71
2017-06-22T11:41:41.395Z,1022.84
2017-06-22T11:42:41.405Z,1022.92
2017-06-22T11:43:41.414Z,1022.98
2017-06-22T11:44:41.424Z,1023.06
2017-06-22T11:45:41.431Z,1023.02
2017-06-22T11:46:41.440Z,1023.08
2017-06-22T11:47:41.450Z,1023.08
2017-06-22T11:48:41.460Z,1023.1
2017-06-22T11:49:41.467Z,1023.14
2017-06-22T11:50:41.477Z,1023.24
2017-06-22T11:51:41.485Z,1023.35
2017-06-22T11:52:41.495Z,1023.44
2017-06-22T11:53:41.502Z,1023.5
2017-06-22T11:54:41.511Z,1023.56
2017-06-22T11:55:41.520Z,1023.58
2017-06-22T11:56:41.527Z,1023.66
2017-06-22T11:57:41.536Z,1023.67
2017-06-22T11:58:41.545Z,1023.78
2017-06-22T11:59:41.552Z,1023.85
2017-06-22T12:00:41.560Z,1023.89
2017-06-22T12:01:41.568Z,1023.99
2017-06-22T12:02:41.576Z,1024.06
2017-06-22T12:03:41.584Z,1024.16
2017-06-22T12:04:41.594Z,1024.19
2017-06-22T12:05:41.600Z,1024.27
2017-06-22T12:06:41.607Z,1024.31
2017-06-22T12:07:41.614Z,1024.35
2017-06-22T12:08:41.621Z,1024.38
2017-06-22T12:09:41.629Z,1024.39
2017-06-22T12:10:41.636Z,1024.4
2017-06-22T12:11:41.643Z,1024.44
2017-06-22T12:12:41.650Z,1024.49
2017-06-22T12:13:41.659Z,1024.5
2017-06-22T12:14:41.665Z,1024.46